sensor_id;sensor_type;location;lat;lon;timestamp;temperature;humidity
8565;DHT22;4320;51.498;6.556;2022-07-06T00:01:38;16.30;1.00
8565;DHT22;4320;51.498;6.556;2022-07-06T00:04:04;16.20;1.00
8565;DHT22;4320;51.498;6.556;2022-07-06T00:06:30;16.20;1.00
8565;DHT22;4320;51.498;6.556;2022-07-06T00:08:56;16.20;1.00
8565;DHT22;4320;51.498;6.556;2022-07-06T00:11:22;16.10;1.00
8565;DHT22;4320;51.498;6.556;2022-07-06T00:13:47;16.10;1.00
8565;DHT22;4320;51.498;6.556;2022-07-06T00:16:13;16.10;1.00
8565;DHT22;4320;51.498;6.556;2022-07-06T00:18:39;16.10;1.00
8565;DHT22;4320;51.498;6.556;2022-07-06T00:21:05;16.00;1.00
8565;DHT22;4320;51.498;6.556;2022-07-06T00:23:31;15.90;1.00
8565;DHT22;4320;51.498;6.556;2022-07-06T00:25:56;15.80;1.00
8565;DHT22;4320;51.498;6.556;2022-07-06T00:28:22;15.70;1.00
8565;DHT22;4320;51.498;6.556;2022-07-06T00:30:48;15.70;1.00
8565;DHT22;4320;51.498;6.556;2022-07-06T00:33:13;15.70;1.00
8565;DHT22;4320;51.498;6.556;2022-07-06T00:35:39;15.70;1.00
8565;DHT22;4320;51.498;6.556;2022-07-06T00:38:04;15.70;1.00
8565;DHT22;4320;51.498;6.556;2022-07-06T00:40:30;15.60;1.00
8565;DHT22;4320;51.498;6.556;2022-07-06T00:42:56;15.70;1.00
8565;DHT22;4320;51.498;6.556;2022-07-06T00:45:22;15.70;1.00
8565;DHT22;4320;51.498;6.556;2022-07-06T00:47:48;15.60;1.00
8565;DHT22;4320;51.498;6.556;2022-07-06T00:50:15;15.50;1.00
8565;DHT22;4320;51.498;6.556;2022-07-06T00:52:59;15.40;1.00
8565;DHT22;4320;51.498;6.556;2022-07-06T00:55:26;15.40;1.00
8565;DHT22;4320;51.498;6.556;2022-07-06T00:57:53;15.30;1.00
8565;DHT22;4320;51.498;6.556;2022-07-06T01:00:25;15.40;1.00
8565;DHT22;4320;51.498;6.556;2022-07-06T01:02:52;15.40;1.00
8565;DHT22;4320;51.498;6.556;2022-07-06T01:05:18;15.40;1.00
8565;DHT22;4320;51.498;6.556;2022-07-06T01:07:46;15.40;1.00
8565;DHT22;4320;51.498;6.556;2022-07-06T01:10:13;15.40;1.00
8565;DHT22;4320;51.498;6.556;2022-07-06T01:12:41;15.40;1.00
8565;DHT22;4320;51.498;6.556;2022-07-06T01:15:10;15.40;1.00
8565;DHT22;4320;51.498;6.556;2022-07-06T01:17:37;15.30;1.00
8565;DHT22;4320;51.498;6.556;2022-07-06T01:22:38;15.20;1.00
8565;DHT22;4320;51.498;6.556;2022-07-06T01:25:05;15.20;1.00
8565;DHT22;4320;51.498;6.556;2022-07-06T01:27:33;15.20;1.00
8565;DHT22;4320;51.498;6.556;2022-07-06T01:30:00;15.20;1.00
8565;DHT22;4320;51.498;6.556;2022-07-06T01:32:26;15.20;1.00
8565;DHT22;4320;51.498;6.556;2022-07-06T01:34:51;15.10;1.00
8565;DHT22;4320;51.498;6.556;2022-07-06T01:37:17;15.20;1.00
8565;DHT22;4320;51.498;6.556;2022-07-06T01:39:43;15.20;1.00
8565;DHT22;4320;51.498;6.556;2022-07-06T01:42:08;15.20;1.00
8565;DHT22;4320;51.498;6.556;2022-07-06T01:44:34;15.20;1.00
8565;DHT22;4320;51.498;6.556;2022-07-06T01:46:59;15.20;1.00
8565;DHT22;4320;51.498;6.556;2022-07-06T01:49:26;15.20;1.00
8565;DHT22;4320;51.498;6.556;2022-07-06T01:51:51;15.30;1.00
8565;DHT22;4320;51.498;6.556;2022-07-06T01:54:17;15.20;1.00
8565;DHT22;4320;51.498;6.556;2022-07-06T01:56:43;15.20;1.00
8565;DHT22;4320;51.498;6.556;2022-07-06T01:59:08;15.10;1.00
8565;DHT22;4320;51.498;6.556;2022-07-06T02:01:35;15.10;1.00
8565;DHT22;4320;51.498;6.556;2022-07-06T02:04:00;15.10;1.00
8565;DHT22;4320;51.498;6.556;2022-07-06T02:06:26;15.10;1.00
8565;DHT22;4320;51.498;6.556;2022-07-06T02:08:52;15.00;1.00
8565;DHT22;4320;51.498;6.556;2022-07-06T02:11:19;15.00;1.00
8565;DHT22;4320;51.498;6.556;2022-07-06T02:13:45;14.90;1.00
8565;DHT22;4320;51.498;6.556;2022-07-06T02:16:10;14.90;1.00
8565;DHT22;4320;51.498;6.556;2022-07-06T02:18:36;14.80;1.00
8565;DHT22;4320;51.498;6.556;2022-07-06T02:21:03;14.70;1.00
8565;DHT22;4320;51.498;6.556;2022-07-06T02:23:29;14.70;1.00
8565;DHT22;4320;51.498;6.556;2022-07-06T02:25:55;14.60;1.00
8565;DHT22;4320;51.498;6.556;2022-07-06T02:28:20;14.60;1.00
8565;DHT22;4320;51.498;6.556;2022-07-06T02:30:46;14.70;1.00
8565;DHT22;4320;51.498;6.556;2022-07-06T02:33:12;14.70;1.00
8565;DHT22;4320;51.498;6.556;2022-07-06T02:35:37;14.70;1.00
8565;DHT22;4320;51.498;6.556;2022-07-06T02:38:07;14.70;1.00
8565;DHT22;4320;51.498;6.556;2022-07-06T02:40:33;14.70;1.00
8565;DHT22;4320;51.498;6.556;2022-07-06T02:42:58;14.70;1.00
8565;DHT22;4320;51.498;6.556;2022-07-06T02:45:24;14.60;1.00
8565;DHT22;4320;51.498;6.556;2022-07-06T02:47:50;14.60;1.00
8565;DHT22;4320;51.498;6.556;2022-07-06T02:50:16;14.50;1.00
8565;DHT22;4320;51.498;6.556;2022-07-06T02:52:42;14.50;1.00
8565;DHT22;4320;51.498;6.556;2022-07-06T02:55:08;14.50;1.00
8565;DHT22;4320;51.498;6.556;2022-07-06T02:57:34;14.50;1.00
8565;DHT22;4320;51.498;6.556;2022-07-06T02:59:59;14.50;1.00
8565;DHT22;4320;51.498;6.556;2022-07-06T03:02:25;14.50;1.00
8565;DHT22;4320;51.498;6.556;2022-07-06T03:04:52;14.40;1.00
8565;DHT22;4320;51.498;6.556;2022-07-06T03:07:17;14.40;1.00
8565;DHT22;4320;51.498;6.556;2022-07-06T03:09:43;14.30;1.00
8565;DHT22;4320;51.498;6.556;2022-07-06T03:12:09;14.30;1.00
8565;DHT22;4320;51.498;6.556;2022-07-06T03:14:34;14.20;1.00
8565;DHT22;4320;51.498;6.556;2022-07-06T03:17:00;14.30;1.00
8565;DHT22;4320;51.498;6.556;2022-07-06T03:19:26;14.30;1.00
8565;DHT22;4320;51.498;6.556;2022-07-06T03:21:51;14.40;1.00
8565;DHT22;4320;51.498;6.556;2022-07-06T03:24:17;14.50;1.00
8565;DHT22;4320;51.498;6.556;2022-07-06T03:26:43;14.40;1.00
8565;DHT22;4320;51.498;6.556;2022-07-06T03:29:08;14.50;1.00
8565;DHT22;4320;51.498;6.556;2022-07-06T03:31:34;14.50;1.00
8565;DHT22;4320;51.498;6.556;2022-07-06T03:34:00;14.40;1.00
8565;DHT22;4320;51.498;6.556;2022-07-06T03:36:26;14.50;1.00
8565;DHT22;4320;51.498;6.556;2022-07-06T03:38:51;14.60;1.00
8565;DHT22;4320;51.498;6.556;2022-07-06T03:41:17;14.50;1.00
8565;DHT22;4320;51.498;6.556;2022-07-06T03:43:43;14.50;1.00
8565;DHT22;4320;51.498;6.556;2022-07-06T03:46:09;14.60;1.00
8565;DHT22;4320;51.498;6.556;2022-07-06T03:48:34;14.60;1.00
8565;DHT22;4320;51.498;6.556;2022-07-06T03:51:00;14.60;1.00
8565;DHT22;4320;51.498;6.556;2022-07-06T03:53:26;14.70;1.00
8565;DHT22;4320;51.498;6.556;2022-07-06T03:55:52;14.60;1.00
8565;DHT22;4320;51.498;6.556;2022-07-06T03:58:36;14.70;1.00
8565;DHT22;4320;51.498;6.556;2022-07-06T04:01:02;14.60;1.00
8565;DHT22;4320;51.498;6.556;2022-07-06T04:03:28;14.50;1.00
8565;DHT22;4320;51.498;6.556;2022-07-06T04:05:53;14.60;1.00
8565;DHT22;4320;51.498;6.556;2022-07-06T04:08:19;14.70;1.00
8565;DHT22;4320;51.498;6.556;2022-07-06T04:10:45;14.70;1.00
8565;DHT22;4320;51.498;6.556;2022-07-06T04:13:11;14.80;1.00
8565;DHT22;4320;51.498;6.556;2022-07-06T04:15:37;14.60;1.00
8565;DHT22;4320;51.498;6.556;2022-07-06T04:18:03;14.60;1.00
8565;DHT22;4320;51.498;6.556;2022-07-06T04:20:29;14.60;1.00
8565;DHT22;4320;51.498;6.556;2022-07-06T04:22:54;14.60;1.00
8565;DHT22;4320;51.498;6.556;2022-07-06T04:25:20;14.70;1.00
8565;DHT22;4320;51.498;6.556;2022-07-06T04:27:46;14.70;1.00
8565;DHT22;4320;51.498;6.556;2022-07-06T04:30:12;14.70;1.00
8565;DHT22;4320;51.498;6.556;2022-07-06T04:32:37;14.70;1.00
8565;DHT22;4320;51.498;6.556;2022-07-06T04:35:04;14.70;1.00
8565;DHT22;4320;51.498;6.556;2022-07-06T04:37:31;14.70;1.00
8565;DHT22;4320;51.498;6.556;2022-07-06T04:39:56;14.60;1.00
8565;DHT22;4320;51.498;6.556;2022-07-06T04:42:22;14.70;1.00
8565;DHT22;4320;51.498;6.556;2022-07-06T04:44:48;14.60;1.00
8565;DHT22;4320;51.498;6.556;2022-07-06T04:47:14;14.60;1.00
8565;DHT22;4320;51.498;6.556;2022-07-06T04:49:40;14.70;1.00
8565;DHT22;4320;51.498;6.556;2022-07-06T04:52:05;14.70;1.00
8565;DHT22;4320;51.498;6.556;2022-07-06T04:54:31;14.80;1.00
8565;DHT22;4320;51.498;6.556;2022-07-06T04:56:57;14.80;1.00
8565;DHT22;4320;51.498;6.556;2022-07-06T04:59:23;14.80;1.00
8565;DHT22;4320;51.498;6.556;2022-07-06T05:01:49;14.90;1.00
8565;DHT22;4320;51.498;6.556;2022-07-06T05:04:15;15.10;1.00
8565;DHT22;4320;51.498;6.556;2022-07-06T05:06:43;15.00;1.00
8565;DHT22;4320;51.498;6.556;2022-07-06T05:09:09;14.90;1.00
8565;DHT22;4320;51.498;6.556;2022-07-06T05:11:35;14.80;1.00
8565;DHT22;4320;51.498;6.556;2022-07-06T05:14:00;14.80;1.00
8565;DHT22;4320;51.498;6.556;2022-07-06T05:16:26;14.80;1.00
8565;DHT22;4320;51.498;6.556;2022-07-06T05:18:52;15.00;1.00
8565;DHT22;4320;51.498;6.556;2022-07-06T05:21:18;14.90;1.00
8565;DHT22;4320;51.498;6.556;2022-07-06T05:23:43;15.00;1.00
8565;DHT22;4320;51.498;6.556;2022-07-06T05:26:09;15.10;1.00
8565;DHT22;4320;51.498;6.556;2022-07-06T05:28:34;15.10;1.00
8565;DHT22;4320;51.498;6.556;2022-07-06T05:31:00;15.10;1.00
8565;DHT22;4320;51.498;6.556;2022-07-06T05:33:27;15.10;1.00
8565;DHT22;4320;51.498;6.556;2022-07-06T05:35:53;15.20;1.00
8565;DHT22;4320;51.498;6.556;2022-07-06T05:38:18;15.30;1.00
8565;DHT22;4320;51.498;6.556;2022-07-06T05:40:44;15.40;1.00
8565;DHT22;4320;51.498;6.556;2022-07-06T05:43:10;15.50;1.00
8565;DHT22;4320;51.498;6.556;2022-07-06T05:45:36;15.60;1.00
8565;DHT22;4320;51.498;6.556;2022-07-06T05:48:01;15.50;1.00
8565;DHT22;4320;51.498;6.556;2022-07-06T05:50:46;15.60;1.00
8565;DHT22;4320;51.498;6.556;2022-07-06T05:53:11;15.50;1.00
8565;DHT22;4320;51.498;6.556;2022-07-06T05:55:37;15.50;1.00
8565;DHT22;4320;51.498;6.556;2022-07-06T05:58:03;15.40;1.00
8565;DHT22;4320;51.498;6.556;2022-07-06T06:00:29;15.50;1.00
8565;DHT22;4320;51.498;6.556;2022-07-06T06:02:55;15.40;1.00
8565;DHT22;4320;51.498;6.556;2022-07-06T06:05:21;15.50;1.00
8565;DHT22;4320;51.498;6.556;2022-07-06T06:07:47;15.60;1.00
8565;DHT22;4320;51.498;6.556;2022-07-06T06:10:14;15.70;1.00
8565;DHT22;4320;51.498;6.556;2022-07-06T06:12:41;15.70;1.00
8565;DHT22;4320;51.498;6.556;2022-07-06T06:15:07;15.80;1.00
8565;DHT22;4320;51.498;6.556;2022-07-06T06:17:34;15.80;1.00
8565;DHT22;4320;51.498;6.556;2022-07-06T06:20:00;15.90;1.00
8565;DHT22;4320;51.498;6.556;2022-07-06T06:22:26;15.90;1.00
8565;DHT22;4320;51.498;6.556;2022-07-06T06:24:52;16.00;1.00
8565;DHT22;4320;51.498;6.556;2022-07-06T06:27:18;16.00;1.00
8565;DHT22;4320;51.498;6.556;2022-07-06T06:29:44;16.00;1.00
8565;DHT22;4320;51.498;6.556;2022-07-06T06:32:11;16.10;1.00
8565;DHT22;4320;51.498;6.556;2022-07-06T06:34:38;16.40;1.00
8565;DHT22;4320;51.498;6.556;2022-07-06T06:37:04;16.50;1.00
8565;DHT22;4320;51.498;6.556;2022-07-06T06:39:29;16.50;1.00
8565;DHT22;4320;51.498;6.556;2022-07-06T06:41:55;16.40;1.00
8565;DHT22;4320;51.498;6.556;2022-07-06T06:44:21;16.40;1.00
8565;DHT22;4320;51.498;6.556;2022-07-06T06:46:50;16.40;1.00
8565;DHT22;4320;51.498;6.556;2022-07-06T06:49:17;16.60;1.00
8565;DHT22;4320;51.498;6.556;2022-07-06T06:51:43;16.50;1.00
8565;DHT22;4320;51.498;6.556;2022-07-06T06:54:09;16.70;1.00
8565;DHT22;4320;51.498;6.556;2022-07-06T06:56:35;16.70;1.00
8565;DHT22;4320;51.498;6.556;2022-07-06T06:59:00;16.90;1.00
8565;DHT22;4320;51.498;6.556;2022-07-06T07:01:27;17.00;1.00
8565;DHT22;4320;51.498;6.556;2022-07-06T07:03:53;17.10;1.00
8565;DHT22;4320;51.498;6.556;2022-07-06T07:06:20;17.20;1.00
8565;DHT22;4320;51.498;6.556;2022-07-06T07:08:46;17.20;1.00
8565;DHT22;4320;51.498;6.556;2022-07-06T07:11:11;17.30;1.00
8565;DHT22;4320;51.498;6.556;2022-07-06T07:13:37;17.30;1.00
8565;DHT22;4320;51.498;6.556;2022-07-06T07:16:03;17.30;1.00
8565;DHT22;4320;51.498;6.556;2022-07-06T07:18:28;17.30;1.00
8565;DHT22;4320;51.498;6.556;2022-07-06T07:20:54;17.30;1.00
8565;DHT22;4320;51.498;6.556;2022-07-06T07:23:20;17.30;1.00
8565;DHT22;4320;51.498;6.556;2022-07-06T07:25:45;17.40;1.00
8565;DHT22;4320;51.498;6.556;2022-07-06T07:28:11;17.50;1.00
8565;DHT22;4320;51.498;6.556;2022-07-06T07:30:36;17.70;1.00
8565;DHT22;4320;51.498;6.556;2022-07-06T07:33:02;17.70;1.00
8565;DHT22;4320;51.498;6.556;2022-07-06T07:35:28;17.80;1.00
8565;DHT22;4320;51.498;6.556;2022-07-06T07:37:53;17.90;1.00
8565;DHT22;4320;51.498;6.556;2022-07-06T07:40:19;18.00;1.00
8565;DHT22;4320;51.498;6.556;2022-07-06T07:42:45;18.00;1.00
8565;DHT22;4320;51.498;6.556;2022-07-06T07:45:11;18.10;1.00
8565;DHT22;4320;51.498;6.556;2022-07-06T07:47:38;18.10;1.00
8565;DHT22;4320;51.498;6.556;2022-07-06T07:50:04;18.10;1.00
8565;DHT22;4320;51.498;6.556;2022-07-06T07:52:30;18.20;1.00
8565;DHT22;4320;51.498;6.556;2022-07-06T07:54:56;18.20;1.00
8565;DHT22;4320;51.498;6.556;2022-07-06T07:57:22;18.20;1.00
8565;DHT22;4320;51.498;6.556;2022-07-06T07:59:48;18.20;1.00
8565;DHT22;4320;51.498;6.556;2022-07-06T08:02:13;18.30;1.00
8565;DHT22;4320;51.498;6.556;2022-07-06T08:04:39;18.30;1.00
8565;DHT22;4320;51.498;6.556;2022-07-06T08:07:05;18.20;1.00
8565;DHT22;4320;51.498;6.556;2022-07-06T08:09:31;18.30;1.00
8565;DHT22;4320;51.498;6.556;2022-07-06T08:11:57;18.50;1.00
8565;DHT22;4320;51.498;6.556;2022-07-06T08:14:24;18.60;1.00
8565;DHT22;4320;51.498;6.556;2022-07-06T08:16:49;18.60;1.00
8565;DHT22;4320;51.498;6.556;2022-07-06T08:19:15;18.60;1.00
8565;DHT22;4320;51.498;6.556;2022-07-06T08:21:41;18.60;1.00
8565;DHT22;4320;51.498;6.556;2022-07-06T08:24:07;18.60;1.00
8565;DHT22;4320;51.498;6.556;2022-07-06T08:26:34;18.50;1.00
8565;DHT22;4320;51.498;6.556;2022-07-06T08:29:00;18.50;1.00
8565;DHT22;4320;51.498;6.556;2022-07-06T08:31:26;18.50;1.00
8565;DHT22;4320;51.498;6.556;2022-07-06T08:33:53;18.50;1.00
8565;DHT22;4320;51.498;6.556;2022-07-06T08:36:20;18.70;1.00
8565;DHT22;4320;51.498;6.556;2022-07-06T08:38:46;18.80;1.00
8565;DHT22;4320;51.498;6.556;2022-07-06T08:41:14;18.90;1.00
8565;DHT22;4320;51.498;6.556;2022-07-06T08:43:40;18.90;1.00
8565;DHT22;4320;51.498;6.556;2022-07-06T08:46:07;18.90;1.00
8565;DHT22;4320;51.498;6.556;2022-07-06T08:48:36;19.10;1.00
8565;DHT22;4320;51.498;6.556;2022-07-06T08:51:02;19.00;1.00
8565;DHT22;4320;51.498;6.556;2022-07-06T08:53:28;19.10;1.00
8565;DHT22;4320;51.498;6.556;2022-07-06T08:55:54;19.10;1.00
8565;DHT22;4320;51.498;6.556;2022-07-06T08:58:23;19.20;1.00
8565;DHT22;4320;51.498;6.556;2022-07-06T09:00:49;19.20;1.00
8565;DHT22;4320;51.498;6.556;2022-07-06T09:03:15;19.10;1.00
8565;DHT22;4320;51.498;6.556;2022-07-06T09:05:45;19.10;1.00
8565;DHT22;4320;51.498;6.556;2022-07-06T09:08:11;19.10;1.00
8565;DHT22;4320;51.498;6.556;2022-07-06T09:10:37;18.90;1.00
8565;DHT22;4320;51.498;6.556;2022-07-06T09:13:07;19.10;1.00
8565;DHT22;4320;51.498;6.556;2022-07-06T09:15:35;19.20;1.00
8565;DHT22;4320;51.498;6.556;2022-07-06T09:18:03;19.20;1.00
8565;DHT22;4320;51.498;6.556;2022-07-06T09:20:29;19.30;1.00
8565;DHT22;4320;51.498;6.556;2022-07-06T09:22:59;19.40;1.00
8565;DHT22;4320;51.498;6.556;2022-07-06T09:25:26;19.50;1.00
8565;DHT22;4320;51.498;6.556;2022-07-06T09:27:52;19.50;1.00
8565;DHT22;4320;51.498;6.556;2022-07-06T09:30:21;19.60;1.00
8565;DHT22;4320;51.498;6.556;2022-07-06T09:32:53;19.60;1.00
8565;DHT22;4320;51.498;6.556;2022-07-06T09:35:36;19.60;1.00
8565;DHT22;4320;51.498;6.556;2022-07-06T09:38:15;19.50;1.00
8565;DHT22;4320;51.498;6.556;2022-07-06T09:40:41;19.70;1.00
8565;DHT22;4320;51.498;6.556;2022-07-06T09:43:11;19.70;1.00
8565;DHT22;4320;51.498;6.556;2022-07-06T09:45:39;19.80;1.00
8565;DHT22;4320;51.498;6.556;2022-07-06T09:48:15;19.90;1.00
8565;DHT22;4320;51.498;6.556;2022-07-06T09:50:49;20.00;1.00
8565;DHT22;4320;51.498;6.556;2022-07-06T09:53:19;19.90;1.00
8565;DHT22;4320;51.498;6.556;2022-07-06T09:55:47;20.10;1.00
8565;DHT22;4320;51.498;6.556;2022-07-06T09:58:14;20.10;1.00
8565;DHT22;4320;51.498;6.556;2022-07-06T10:00:43;20.00;1.00
8565;DHT22;4320;51.498;6.556;2022-07-06T10:03:10;19.90;1.00
8565;DHT22;4320;51.498;6.556;2022-07-06T10:05:38;20.10;1.00
8565;DHT22;4320;51.498;6.556;2022-07-06T10:08:05;20.10;1.00
8565;DHT22;4320;51.498;6.556;2022-07-06T10:10:32;20.20;1.00
8565;DHT22;4320;51.498;6.556;2022-07-06T10:12:59;20.30;1.00
8565;DHT22;4320;51.498;6.556;2022-07-06T10:15:26;20.30;1.00
8565;DHT22;4320;51.498;6.556;2022-07-06T10:17:52;20.50;1.00
8565;DHT22;4320;51.498;6.556;2022-07-06T10:20:19;20.50;1.00
8565;DHT22;4320;51.498;6.556;2022-07-06T10:22:49;20.40;1.00
8565;DHT22;4320;51.498;6.556;2022-07-06T10:25:16;20.30;1.00
8565;DHT22;4320;51.498;6.556;2022-07-06T10:27:42;20.30;1.00
8565;DHT22;4320;51.498;6.556;2022-07-06T10:30:09;20.30;1.00
8565;DHT22;4320;51.498;6.556;2022-07-06T10:32:36;20.50;1.00
8565;DHT22;4320;51.498;6.556;2022-07-06T10:35:02;20.80;1.00
8565;DHT22;4320;51.498;6.556;2022-07-06T10:37:28;20.70;1.00
8565;DHT22;4320;51.498;6.556;2022-07-06T10:39:54;20.90;1.00
8565;DHT22;4320;51.498;6.556;2022-07-06T10:42:39;20.90;1.00
8565;DHT22;4320;51.498;6.556;2022-07-06T10:45:06;20.70;1.00
8565;DHT22;4320;51.498;6.556;2022-07-06T10:47:32;20.70;1.00
8565;DHT22;4320;51.498;6.556;2022-07-06T10:50:03;20.70;1.00
8565;DHT22;4320;51.498;6.556;2022-07-06T10:55:29;20.80;1.00
8565;DHT22;4320;51.498;6.556;2022-07-06T10:57:55;20.80;1.00
8565;DHT22;4320;51.498;6.556;2022-07-06T11:00:21;20.90;1.00
8565;DHT22;4320;51.498;6.556;2022-07-06T11:02:47;20.90;1.00
8565;DHT22;4320;51.498;6.556;2022-07-06T11:05:42;20.90;1.00
8565;DHT22;4320;51.498;6.556;2022-07-06T11:08:10;21.00;1.00
8565;DHT22;4320;51.498;6.556;2022-07-06T11:10:56;21.00;1.00
8565;DHT22;4320;51.498;6.556;2022-07-06T11:13:42;21.00;1.00
8565;DHT22;4320;51.498;6.556;2022-07-06T11:16:08;21.10;1.00
8565;DHT22;4320;51.498;6.556;2022-07-06T11:18:41;21.10;1.00
8565;DHT22;4320;51.498;6.556;2022-07-06T11:23:43;20.90;1.00
8565;DHT22;4320;51.498;6.556;2022-07-06T11:26:09;20.90;1.00
8565;DHT22;4320;51.498;6.556;2022-07-06T11:28:37;21.00;1.00
8565;DHT22;4320;51.498;6.556;2022-07-06T11:31:03;20.90;1.00
8565;DHT22;4320;51.498;6.556;2022-07-06T11:33:32;20.80;1.00
8565;DHT22;4320;51.498;6.556;2022-07-06T11:36:18;20.90;1.00
8565;DHT22;4320;51.498;6.556;2022-07-06T11:38:45;20.90;1.00
8565;DHT22;4320;51.498;6.556;2022-07-06T11:41:11;20.90;1.00
8565;DHT22;4320;51.498;6.556;2022-07-06T11:43:40;21.00;1.00
8565;DHT22;4320;51.498;6.556;2022-07-06T11:46:21;21.10;1.00
8565;DHT22;4320;51.498;6.556;2022-07-06T11:48:53;21.30;1.00
8565;DHT22;4320;51.498;6.556;2022-07-06T11:51:19;21.40;1.00
8565;DHT22;4320;51.498;6.556;2022-07-06T11:53:46;21.30;1.00
8565;DHT22;4320;51.498;6.556;2022-07-06T11:56:14;21.50;1.00
8565;DHT22;4320;51.498;6.556;2022-07-06T11:58:41;21.60;1.00
8565;DHT22;4320;51.498;6.556;2022-07-06T12:01:10;21.60;1.00
8565;DHT22;4320;51.498;6.556;2022-07-06T12:03:37;21.40;1.00
8565;DHT22;4320;51.498;6.556;2022-07-06T12:06:04;21.60;1.00
8565;DHT22;4320;51.498;6.556;2022-07-06T12:08:30;21.50;1.00
8565;DHT22;4320;51.498;6.556;2022-07-06T12:10:56;21.70;1.00
8565;DHT22;4320;51.498;6.556;2022-07-06T12:13:23;21.80;1.00
8565;DHT22;4320;51.498;6.556;2022-07-06T12:15:49;21.90;1.00
8565;DHT22;4320;51.498;6.556;2022-07-06T12:18:16;22.20;1.00
8565;DHT22;4320;51.498;6.556;2022-07-06T12:20:42;22.50;1.00
8565;DHT22;4320;51.498;6.556;2022-07-06T12:23:07;22.70;1.00
8565;DHT22;4320;51.498;6.556;2022-07-06T12:25:35;22.80;1.00
8565;DHT22;4320;51.498;6.556;2022-07-06T12:28:02;23.10;1.00
8565;DHT22;4320;51.498;6.556;2022-07-06T12:30:27;22.90;1.00
8565;DHT22;4320;51.498;6.556;2022-07-06T12:33:16;22.90;1.00
8565;DHT22;4320;51.498;6.556;2022-07-06T12:35:42;23.10;1.00
8565;DHT22;4320;51.498;6.556;2022-07-06T12:38:09;23.40;1.00
8565;DHT22;4320;51.498;6.556;2022-07-06T12:40:36;23.80;1.00
8565;DHT22;4320;51.498;6.556;2022-07-06T12:43:03;23.90;1.00
8565;DHT22;4320;51.498;6.556;2022-07-06T12:45:30;23.90;1.00
8565;DHT22;4320;51.498;6.556;2022-07-06T12:47:59;23.80;1.00
8565;DHT22;4320;51.498;6.556;2022-07-06T12:50:36;23.70;1.00
8565;DHT22;4320;51.498;6.556;2022-07-06T12:53:04;23.60;1.00
8565;DHT22;4320;51.498;6.556;2022-07-06T12:55:30;23.40;1.00
8565;DHT22;4320;51.498;6.556;2022-07-06T12:57:57;23.00;1.00
8565;DHT22;4320;51.498;6.556;2022-07-06T13:00:24;22.70;1.00
8565;DHT22;4320;51.498;6.556;2022-07-06T13:02:52;22.80;1.00
8565;DHT22;4320;51.498;6.556;2022-07-06T13:05:26;23.20;1.00
8565;DHT22;4320;51.498;6.556;2022-07-06T13:07:56;23.60;1.00
8565;DHT22;4320;51.498;6.556;2022-07-06T13:10:23;23.80;1.00
8565;DHT22;4320;51.498;6.556;2022-07-06T13:12:50;23.50;1.00
8565;DHT22;4320;51.498;6.556;2022-07-06T13:15:16;23.20;1.00
8565;DHT22;4320;51.498;6.556;2022-07-06T13:17:42;22.70;1.00
8565;DHT22;4320;51.498;6.556;2022-07-06T13:20:10;22.80;1.00
8565;DHT22;4320;51.498;6.556;2022-07-06T13:22:37;22.90;1.00
8565;DHT22;4320;51.498;6.556;2022-07-06T13:25:03;23.20;1.00
8565;DHT22;4320;51.498;6.556;2022-07-06T13:27:28;23.40;1.00
8565;DHT22;4320;51.498;6.556;2022-07-06T13:29:54;23.50;1.00
8565;DHT22;4320;51.498;6.556;2022-07-06T13:32:20;23.50;1.00
8565;DHT22;4320;51.498;6.556;2022-07-06T13:34:47;23.30;1.00
8565;DHT22;4320;51.498;6.556;2022-07-06T13:37:12;23.40;1.00
8565;DHT22;4320;51.498;6.556;2022-07-06T13:39:38;23.30;1.00
8565;DHT22;4320;51.498;6.556;2022-07-06T13:42:04;23.30;1.00
8565;DHT22;4320;51.498;6.556;2022-07-06T13:44:30;23.10;1.00
8565;DHT22;4320;51.498;6.556;2022-07-06T13:46:55;23.10;1.00
8565;DHT22;4320;51.498;6.556;2022-07-06T13:49:21;23.20;1.00
8565;DHT22;4320;51.498;6.556;2022-07-06T13:51:47;23.10;1.00
8565;DHT22;4320;51.498;6.556;2022-07-06T13:54:12;23.20;1.00
8565;DHT22;4320;51.498;6.556;2022-07-06T13:56:39;23.30;1.00
8565;DHT22;4320;51.498;6.556;2022-07-06T13:59:06;23.30;1.00
8565;DHT22;4320;51.498;6.556;2022-07-06T14:01:32;23.40;1.00
8565;DHT22;4320;51.498;6.556;2022-07-06T14:03:58;23.50;1.00
8565;DHT22;4320;51.498;6.556;2022-07-06T14:06:24;23.30;1.00
8565;DHT22;4320;51.498;6.556;2022-07-06T14:08:49;23.50;1.00
8565;DHT22;4320;51.498;6.556;2022-07-06T14:11:15;23.50;1.00
8565;DHT22;4320;51.498;6.556;2022-07-06T14:13:41;23.20;1.00
8565;DHT22;4320;51.498;6.556;2022-07-06T14:16:07;23.00;1.00
8565;DHT22;4320;51.498;6.556;2022-07-06T14:18:33;23.00;1.00
8565;DHT22;4320;51.498;6.556;2022-07-06T14:20:59;23.10;1.00
8565;DHT22;4320;51.498;6.556;2022-07-06T14:23:26;23.10;1.00
8565;DHT22;4320;51.498;6.556;2022-07-06T14:25:52;22.80;1.00
8565;DHT22;4320;51.498;6.556;2022-07-06T14:28:17;22.70;1.00
8565;DHT22;4320;51.498;6.556;2022-07-06T14:30:47;22.60;1.00
8565;DHT22;4320;51.498;6.556;2022-07-06T14:33:14;22.50;1.00
8565;DHT22;4320;51.498;6.556;2022-07-06T14:35:45;22.50;1.00
8565;DHT22;4320;51.498;6.556;2022-07-06T14:38:18;22.60;1.00
8565;DHT22;4320;51.498;6.556;2022-07-06T14:40:45;22.60;1.00
8565;DHT22;4320;51.498;6.556;2022-07-06T14:43:10;22.60;1.00
8565;DHT22;4320;51.498;6.556;2022-07-06T14:45:37;22.50;1.00
8565;DHT22;4320;51.498;6.556;2022-07-06T14:48:03;22.50;1.00
8565;DHT22;4320;51.498;6.556;2022-07-06T14:50:30;22.60;1.00
8565;DHT22;4320;51.498;6.556;2022-07-06T14:52:56;22.50;1.00
8565;DHT22;4320;51.498;6.556;2022-07-06T14:55:22;22.60;1.00
8565;DHT22;4320;51.498;6.556;2022-07-06T14:57:48;22.50;1.00
8565;DHT22;4320;51.498;6.556;2022-07-06T15:00:14;22.50;1.00
8565;DHT22;4320;51.498;6.556;2022-07-06T15:02:41;22.60;1.00
8565;DHT22;4320;51.498;6.556;2022-07-06T15:05:07;22.70;1.00
8565;DHT22;4320;51.498;6.556;2022-07-06T15:07:33;22.90;1.00
8565;DHT22;4320;51.498;6.556;2022-07-06T15:09:59;23.10;1.00
8565;DHT22;4320;51.498;6.556;2022-07-06T15:12:25;23.10;1.00
8565;DHT22;4320;51.498;6.556;2022-07-06T15:14:50;23.00;1.00
8565;DHT22;4320;51.498;6.556;2022-07-06T15:17:16;22.80;1.00
8565;DHT22;4320;51.498;6.556;2022-07-06T15:19:43;22.90;1.00
8565;DHT22;4320;51.498;6.556;2022-07-06T15:22:09;22.80;1.00
8565;DHT22;4320;51.498;6.556;2022-07-06T15:24:35;22.90;1.00
8565;DHT22;4320;51.498;6.556;2022-07-06T15:27:02;22.90;1.00
8565;DHT22;4320;51.498;6.556;2022-07-06T15:29:28;22.90;1.00
8565;DHT22;4320;51.498;6.556;2022-07-06T15:31:54;23.00;1.00
8565;DHT22;4320;51.498;6.556;2022-07-06T15:34:19;23.10;1.00
8565;DHT22;4320;51.498;6.556;2022-07-06T15:36:45;23.10;1.00
8565;DHT22;4320;51.498;6.556;2022-07-06T15:39:11;23.00;1.00
8565;DHT22;4320;51.498;6.556;2022-07-06T15:41:37;22.90;1.00
8565;DHT22;4320;51.498;6.556;2022-07-06T15:44:03;22.80;1.00
8565;DHT22;4320;51.498;6.556;2022-07-06T15:46:28;23.00;1.00
8565;DHT22;4320;51.498;6.556;2022-07-06T15:48:54;22.90;1.00
8565;DHT22;4320;51.498;6.556;2022-07-06T15:51:20;23.10;1.00
8565;DHT22;4320;51.498;6.556;2022-07-06T15:53:46;23.00;1.00
8565;DHT22;4320;51.498;6.556;2022-07-06T15:56:13;22.90;1.00
8565;DHT22;4320;51.498;6.556;2022-07-06T15:58:39;22.90;1.00
8565;DHT22;4320;51.498;6.556;2022-07-06T16:01:05;22.80;1.00
8565;DHT22;4320;51.498;6.556;2022-07-06T16:03:31;22.80;1.00
8565;DHT22;4320;51.498;6.556;2022-07-06T16:06:00;22.80;1.00
8565;DHT22;4320;51.498;6.556;2022-07-06T16:08:26;22.60;1.00
8565;DHT22;4320;51.498;6.556;2022-07-06T16:10:52;22.60;1.00
8565;DHT22;4320;51.498;6.556;2022-07-06T16:13:18;22.70;1.00
8565;DHT22;4320;51.498;6.556;2022-07-06T16:15:46;22.70;1.00
8565;DHT22;4320;51.498;6.556;2022-07-06T16:18:12;22.70;1.00
8565;DHT22;4320;51.498;6.556;2022-07-06T16:20:38;22.70;1.00
8565;DHT22;4320;51.498;6.556;2022-07-06T16:23:04;22.70;1.00